createdAt,value
2018-10-16T00:01:58.786Z,14.02
2018-10-16T00:04:28.040Z,14.01
2018-10-16T00:06:57.138Z,14.00
2018-10-16T00:09:26.162Z,14.04
2018-10-16T00:12:08.164Z,13.98
2018-10-16T00:14:37.231Z,13.90
2018-10-16T00:17:06.331Z,13.76
2018-10-16T00:19:35.401Z,13.67
2018-10-16T00:22:05.001Z,13.55
2018-10-16T00:24:33.885Z,13.46
2018-10-16T00:27:03.084Z,13.43
2018-10-16T00:29:32.170Z,13.40
2018-10-16T00:32:01.285Z,13.39
2018-10-16T00:34:30.887Z,13.33
2018-10-16T00:36:59.863Z,13.22
2018-10-16T00:39:28.912Z,13.17
2018-10-16T00:41:58.947Z,13.14
2018-10-16T00:44:28.034Z,13.12
2018-10-16T00:46:57.168Z,13.06
2018-10-16T00:49:26.302Z,13.02
2018-10-16T00:51:55.185Z,12.97
2018-10-16T00:54:24.221Z,12.93
2018-10-16T00:56:53.534Z,12.85
2018-10-16T00:59:22.524Z,12.75
2018-10-16T01:01:51.607Z,12.64
2018-10-16T01:04:21.019Z,12.68
2018-10-16T01:06:49.936Z,12.59
2018-10-16T01:09:18.948Z,12.52
2018-10-16T01:11:48.198Z,12.51
2018-10-16T01:14:17.396Z,12.48
2018-10-16T01:16:46.410Z,12.36
2018-10-16T01:19:15.721Z,12.32
2018-10-16T01:21:44.786Z,12.32
2018-10-16T01:24:13.875Z,12.31
2018-10-16T01:26:43.260Z,12.29
2018-10-16T01:29:12.125Z,12.29
2018-10-16T01:31:41.098Z,12.26
2018-10-16T01:34:10.516Z,12.22
2018-10-16T01:36:39.496Z,12.21
2018-10-16T01:39:08.590Z,12.13
2018-10-16T01:41:38.043Z,12.12
2018-10-16T01:44:07.057Z,12.08
2018-10-16T01:46:36.134Z,12.07
2018-10-16T01:49:05.903Z,11.99
2018-10-16T01:51:34.905Z,11.94
2018-10-16T01:54:04.040Z,11.89
2018-10-16T01:56:33.446Z,11.84
2018-10-16T01:59:02.758Z,11.84
2018-10-16T02:01:31.754Z,11.82
2018-10-16T02:04:01.068Z,11.76
2018-10-16T02:06:30.078Z,11.73
2018-10-16T02:08:59.159Z,11.74
2018-10-16T02:12:31.210Z,11.74
2018-10-16T02:15:00.173Z,11.72
2018-10-16T02:17:29.339Z,11.73
2018-10-16T02:19:58.858Z,11.72
2018-10-16T02:22:27.836Z,11.69
2018-10-16T02:24:56.842Z,11.66
2018-10-16T02:27:26.179Z,11.62
2018-10-16T02:29:55.230Z,11.61
2018-10-16T02:32:24.290Z,11.59
2018-10-16T02:34:53.423Z,11.54
2018-10-16T02:37:22.469Z,11.48
2018-10-16T02:39:51.530Z,11.43
2018-10-16T02:42:20.648Z,11.39
2018-10-16T02:44:49.749Z,11.38
2018-10-16T02:47:18.796Z,11.38
2018-10-16T02:49:48.220Z,11.49
2018-10-16T02:52:17.101Z,11.56
2018-10-16T02:54:46.097Z,11.52
2018-10-16T02:57:15.486Z,11.50
2018-10-16T02:59:44.508Z,11.47
2018-10-16T03:02:13.535Z,11.44
2018-10-16T03:04:42.976Z,11.43
2018-10-16T03:07:11.931Z,11.42
2018-10-16T03:09:41.070Z,11.47
2018-10-16T03:12:10.235Z,11.41
2018-10-16T03:16:08.677Z,11.38
2018-10-16T03:18:37.918Z,11.29
2018-10-16T03:21:06.924Z,11.32
2018-10-16T03:23:35.940Z,11.25
2018-10-16T03:26:04.926Z,11.23
2018-10-16T03:28:33.960Z,11.22
2018-10-16T03:31:03.153Z,11.28
2018-10-16T03:33:32.343Z,11.19
2018-10-16T03:36:01.524Z,11.19
2018-10-16T03:38:30.700Z,11.23
2018-10-16T03:40:59.966Z,11.16
2018-10-16T03:43:28.888Z,11.08
2018-10-16T03:45:57.876Z,11.03
2018-10-16T03:48:27.044Z,11.01
2018-10-16T03:50:56.092Z,11.00
2018-10-16T03:53:25.104Z,10.98
2018-10-16T03:55:54.184Z,10.95
2018-10-16T03:58:23.284Z,10.91
2018-10-16T04:00:52.503Z,10.93
2018-10-16T04:03:21.676Z,11.08
2018-10-16T04:05:50.512Z,11.05
2018-10-16T04:08:19.432Z,11.06
2018-10-16T04:10:48.654Z,11.02
2018-10-16T04:13:17.702Z,10.96
2018-10-16T04:15:46.798Z,10.94
2018-10-16T04:18:15.907Z,10.94
2018-10-16T04:20:44.870Z,10.84
2018-10-16T04:23:13.772Z,10.79
2018-10-16T04:25:43.208Z,10.69
2018-10-16T04:28:12.169Z,10.65
2018-10-16T04:30:41.074Z,10.67
2018-10-16T04:33:10.313Z,10.72
2018-10-16T04:35:39.785Z,10.65
2018-10-16T04:38:08.819Z,10.59
2018-10-16T04:40:37.923Z,10.57
2018-10-16T04:43:06.990Z,10.56
2018-10-16T04:45:35.988Z,10.55
2018-10-16T04:48:05.080Z,10.63
2018-10-16T04:50:34.223Z,10.64
2018-10-16T04:53:03.424Z,10.71
2018-10-16T04:55:32.737Z,10.69
2018-10-16T04:58:01.826Z,10.71
2018-10-16T05:00:30.948Z,10.79
2018-10-16T05:03:00.702Z,10.98
2018-10-16T05:05:29.857Z,11.04
2018-10-16T05:07:58.939Z,11.08
2018-10-16T05:10:27.954Z,11.13
2018-10-16T05:12:56.945Z,11.27
2018-10-16T05:15:28.656Z,11.31
2018-10-16T05:17:57.939Z,11.40
2018-10-16T05:20:27.001Z,11.49
2018-10-16T05:22:56.886Z,11.52
2018-10-16T05:25:27.110Z,11.61
2018-10-16T05:27:56.759Z,11.65
2018-10-16T05:30:26.307Z,11.67
2018-10-16T05:32:55.365Z,11.70
2018-10-16T05:35:24.547Z,11.74
2018-10-16T05:37:53.462Z,11.84
2018-10-16T05:40:22.432Z,11.91
2018-10-16T05:42:51.409Z,11.97
2018-10-16T05:45:20.360Z,12.01
2018-10-16T05:47:49.363Z,12.13
2018-10-16T05:50:18.350Z,12.16
2018-10-16T05:52:47.205Z,12.19
2018-10-16T05:55:16.121Z,12.25
2018-10-16T05:57:45.334Z,12.37
2018-10-16T06:00:25.204Z,12.48
2018-10-16T06:02:54.376Z,12.49
2018-10-16T06:05:23.502Z,12.55
2018-10-16T06:07:52.445Z,12.54
2018-10-16T06:10:21.361Z,12.58
2018-10-16T06:12:50.280Z,12.71
2018-10-16T06:15:19.247Z,12.82
2018-10-16T06:17:48.423Z,12.88
2018-10-16T06:20:17.438Z,12.93
2018-10-16T06:22:46.433Z,13.01
2018-10-16T06:25:15.534Z,13.10
2018-10-16T06:27:45.059Z,13.18
2018-10-16T06:30:14.157Z,13.22
2018-10-16T06:32:43.317Z,13.31
2018-10-16T06:35:12.369Z,13.37
2018-10-16T06:37:41.184Z,13.44
2018-10-16T06:40:10.835Z,13.52
2018-10-16T06:42:40.313Z,13.63
2018-10-16T06:45:11.282Z,13.70
2018-10-16T06:47:40.369Z,13.88
2018-10-16T06:50:10.667Z,13.97
2018-10-16T06:52:39.949Z,14.06
2018-10-16T06:55:09.146Z,14.16
2018-10-16T06:57:38.079Z,14.23
2018-10-16T07:00:08.149Z,14.32
2018-10-16T07:02:37.075Z,14.39
2018-10-16T07:05:06.901Z,14.49
2018-10-16T07:07:36.148Z,14.63
2018-10-16T07:10:05.485Z,14.75
2018-10-16T07:12:34.397Z,14.83
2018-10-16T07:15:03.701Z,14.91
2018-10-16T07:17:32.716Z,15.00
2018-10-16T07:20:01.773Z,15.10
2018-10-16T07:22:30.859Z,15.13
2018-10-16T07:24:59.849Z,15.31
2018-10-16T07:27:28.808Z,15.42
2018-10-16T07:29:58.812Z,15.57
2018-10-16T07:32:27.637Z,15.66
2018-10-16T07:34:56.680Z,15.78
2018-10-16T07:37:25.760Z,15.87
2018-10-16T07:39:54.762Z,15.89
2018-10-16T07:42:23.822Z,15.94
2018-10-16T07:44:52.997Z,16.03
2018-10-16T07:47:21.966Z,16.18
2018-10-16T07:49:50.968Z,16.30
2018-10-16T07:52:20.324Z,16.31
2018-10-16T07:54:49.322Z,16.45
2018-10-16T07:57:18.313Z,16.53
2018-10-16T07:59:47.329Z,16.62
2018-10-16T08:02:16.343Z,16.67
2018-10-16T08:04:45.241Z,16.78
2018-10-16T08:07:14.288Z,16.87
2018-10-16T08:09:43.265Z,16.95
2018-10-16T08:12:12.290Z,17.06
2018-10-16T08:14:41.508Z,17.12
2018-10-16T08:17:10.542Z,17.15
2018-10-16T08:19:39.439Z,17.22
2018-10-16T08:22:08.514Z,17.34
2018-10-16T08:24:37.477Z,17.48
2018-10-16T08:27:06.455Z,17.54
2018-10-16T08:29:35.733Z,17.58
2018-10-16T08:32:04.627Z,17.76
2018-10-16T08:34:33.549Z,17.83
2018-10-16T08:37:02.817Z,17.95
2018-10-16T08:39:37.281Z,17.96
2018-10-16T08:43:48.069Z,18.15
2018-10-16T08:46:28.357Z,18.21
2018-10-16T08:49:08.451Z,18.27
2018-10-16T08:51:51.267Z,18.38
2018-10-16T08:54:20.380Z,18.50
2018-10-16T08:56:49.407Z,18.63
2018-10-16T08:59:18.415Z,18.72
2018-10-16T09:01:47.455Z,18.79
2018-10-16T09:04:16.505Z,18.88
2018-10-16T09:06:45.537Z,18.89
2018-10-16T09:09:17.913Z,18.87
2018-10-16T09:11:48.025Z,19.04
2018-10-16T09:14:17.535Z,19.14
2018-10-16T09:16:46.691Z,19.28
2018-10-16T09:19:15.677Z,19.43
2018-10-16T09:21:44.812Z,19.52
2018-10-16T09:24:13.843Z,19.60
2018-10-16T09:26:42.669Z,19.61
2018-10-16T09:29:11.584Z,19.69
2018-10-16T09:31:40.559Z,19.81
2018-10-16T09:34:09.576Z,19.86
2018-10-16T09:36:38.507Z,19.88
2018-10-16T09:39:10.367Z,19.95
2018-10-16T09:41:39.434Z,19.87
2018-10-16T09:44:08.310Z,20.03
2018-10-16T09:46:37.592Z,20.21
2018-10-16T09:49:06.531Z,20.25
2018-10-16T09:51:35.470Z,20.22
2018-10-16T09:54:05.022Z,20.25
2018-10-16T09:56:34.031Z,20.22
2018-10-16T09:59:03.105Z,20.31
2018-10-16T10:01:48.040Z,20.42
2018-10-16T10:04:16.897Z,20.48
2018-10-16T10:06:45.883Z,20.50
2018-10-16T10:09:15.256Z,20.56
2018-10-16T10:11:44.285Z,20.55
2018-10-16T10:14:13.216Z,20.64
2018-10-16T10:16:42.540Z,20.61
2018-10-16T10:19:11.522Z,20.69
2018-10-16T10:21:40.393Z,20.82
2018-10-16T10:24:09.537Z,20.85
2018-10-16T10:26:38.526Z,20.91
2018-10-16T10:29:07.538Z,20.94
2018-10-16T10:31:36.510Z,20.96
2018-10-16T10:34:05.508Z,21.01
2018-10-16T10:36:34.410Z,21.03
2018-10-16T10:39:03.789Z,21.08
2018-10-16T10:41:32.627Z,21.14
2018-10-16T10:44:01.580Z,21.20
2018-10-16T10:46:31.077Z,21.22
2018-10-16T10:48:59.974Z,21.34
2018-10-16T10:51:29.109Z,21.41
2018-10-16T10:53:58.000Z,21.45
2018-10-16T10:56:27.052Z,21.47
2018-10-16T10:58:56.038Z,21.51
2018-10-16T11:01:25.368Z,21.45
2018-10-16T11:03:54.311Z,21.49
2018-10-16T11:06:23.409Z,21.55
2018-10-16T11:08:52.561Z,21.53
2018-10-16T11:11:21.622Z,21.52
2018-10-16T11:13:50.533Z,21.60
2018-10-16T11:16:19.616Z,21.70
2018-10-16T11:18:48.668Z,21.61
2018-10-16T11:21:17.781Z,21.73
2018-10-16T11:23:47.005Z,21.79
2018-10-16T11:26:16.078Z,21.66
2018-10-16T11:28:46.161Z,21.74
2018-10-16T11:31:15.351Z,21.83
2018-10-16T11:33:44.973Z,21.80
2018-10-16T11:36:14.118Z,21.85
2018-10-16T11:38:43.099Z,21.88
2018-10-16T11:41:12.347Z,21.89
2018-10-16T11:43:41.474Z,21.96
2018-10-16T11:46:10.376Z,22.01
2018-10-16T11:48:39.649Z,22.08
2018-10-16T11:51:08.715Z,22.12
2018-10-16T11:53:37.919Z,21.93
2018-10-16T11:58:35.266Z,22.05
2018-10-16T12:01:10.535Z,21.99
2018-10-16T12:03:42.775Z,22.04
2018-10-16T12:06:23.257Z,22.07
2018-10-16T12:08:52.225Z,22.16
2018-10-16T12:11:21.424Z,22.24
2018-10-16T12:13:50.749Z,22.25
2018-10-16T12:16:21.338Z,22.33
2018-10-16T12:18:58.727Z,22.32
2018-10-16T12:21:27.804Z,22.27
2018-10-16T12:23:56.925Z,22.36
2018-10-16T12:26:26.021Z,22.34
2018-10-16T12:28:55.116Z,22.38
2018-10-16T12:31:24.066Z,22.39
2018-10-16T12:33:53.085Z,22.34
2018-10-16T12:36:22.026Z,22.31
2018-10-16T12:38:51.013Z,22.32
2018-10-16T12:41:20.247Z,22.36
2018-10-16T12:43:50.400Z,22.34
2018-10-16T12:46:19.456Z,22.34
2018-10-16T12:48:48.895Z,22.45
2018-10-16T12:51:18.093Z,22.45
2018-10-16T12:53:51.028Z,22.51
2018-10-16T12:56:23.011Z,22.50
2018-10-16T12:58:52.483Z,22.47
2018-10-16T13:01:21.417Z,22.45
2018-10-16T13:03:50.661Z,22.36
2018-10-16T13:06:19.879Z,22.50
2018-10-16T13:08:48.890Z,22.57
2018-10-16T13:11:18.397Z,22.58
2018-10-16T13:13:48.295Z,22.47
2018-10-16T13:16:18.055Z,22.42
2018-10-16T13:18:47.147Z,22.36
2018-10-16T13:21:16.671Z,22.28
2018-10-16T13:23:45.669Z,22.30
2018-10-16T13:26:14.899Z,22.27
2018-10-16T13:28:43.826Z,22.29
2018-10-16T13:31:13.907Z,22.27
2018-10-16T13:33:42.802Z,22.20
2018-10-16T13:36:11.761Z,22.23
2018-10-16T13:38:40.701Z,22.21
2018-10-16T13:41:09.644Z,22.16
2018-10-16T13:43:38.552Z,22.16
2018-10-16T13:46:07.826Z,22.19
2018-10-16T13:48:36.763Z,22.16
2018-10-16T13:51:05.906Z,22.18
2018-10-16T13:53:35.128Z,22.18
2018-10-16T13:56:04.124Z,22.14
2018-10-16T13:58:33.190Z,22.16
2018-10-16T14:01:02.113Z,22.16
2018-10-16T14:03:31.086Z,22.12
2018-10-16T14:06:00.002Z,22.06
2018-10-16T14:08:28.944Z,22.00
2018-10-16T14:10:57.947Z,21.92
2018-10-16T14:13:27.163Z,22.02
2018-10-16T14:15:56.340Z,21.91
2018-10-16T14:18:25.226Z,21.86
2018-10-16T14:20:54.206Z,21.82
2018-10-16T14:23:23.335Z,21.82
2018-10-16T14:25:52.255Z,21.82
2018-10-16T14:28:21.193Z,21.99
2018-10-16T14:30:50.898Z,21.93
2018-10-16T14:33:19.881Z,22.02
2018-10-16T14:35:48.809Z,22.02
2018-10-16T14:38:18.269Z,21.89
2018-10-16T14:40:47.191Z,21.89
2018-10-16T14:43:16.359Z,21.97
2018-10-16T14:45:45.761Z,21.88
2018-10-16T14:48:14.880Z,21.86
2018-10-16T14:50:43.921Z,21.87
2018-10-16T14:53:12.973Z,21.85
2018-10-16T14:55:42.111Z,21.72
2018-10-16T14:58:11.092Z,21.66
2018-10-16T15:00:40.189Z,21.60
2018-10-16T15:03:09.225Z,21.58
2018-10-16T15:05:38.459Z,21.54
2018-10-16T15:08:07.741Z,21.45
2018-10-16T15:10:36.843Z,21.49
2018-10-16T15:13:06.536Z,21.36
2018-10-16T15:15:35.922Z,21.23
2018-10-16T15:18:05.212Z,21.05
2018-10-16T15:20:34.268Z,20.88
2018-10-16T15:23:03.721Z,20.74
2018-10-16T15:25:32.777Z,20.59
2018-10-16T15:28:01.643Z,20.49
2018-10-16T15:30:30.540Z,20.38
2018-10-16T15:32:59.615Z,20.29
2018-10-16T15:35:28.785Z,20.20
2018-10-16T15:37:57.881Z,20.13
2018-10-16T15:40:26.904Z,20.11
2018-10-16T15:42:56.002Z,20.14
2018-10-16T15:45:25.036Z,20.11
2018-10-16T15:47:54.100Z,20.05
2018-10-16T15:50:23.279Z,20.00
2018-10-16T15:52:52.298Z,19.92
2018-10-16T15:55:22.051Z,19.89
2018-10-16T15:57:51.410Z,19.87
2018-10-16T16:00:20.521Z,19.77
2018-10-16T16:02:49.477Z,19.70
2018-10-16T16:05:18.540Z,19.61
2018-10-16T16:07:48.193Z,19.56
2018-10-16T16:10:17.279Z,19.54
2018-10-16T16:12:46.195Z,19.53
2018-10-16T16:15:16.113Z,19.53
2018-10-16T16:17:45.283Z,19.59
2018-10-16T16:20:15.418Z,19.68
2018-10-16T16:22:44.983Z,19.72
2018-10-16T16:25:15.002Z,19.70
2018-10-16T16:27:44.117Z,19.64
2018-10-16T16:30:15.339Z,19.55
2018-10-16T16:32:44.300Z,19.43
2018-10-16T16:35:13.452Z,19.20
2018-10-16T16:37:42.465Z,18.96
2018-10-16T16:40:13.350Z,18.74
2018-10-16T16:42:42.431Z,18.55
2018-10-16T16:45:12.045Z,18.38
2018-10-16T16:47:41.050Z,18.21
2018-10-16T16:50:11.416Z,18.02
2018-10-16T16:52:41.286Z,17.84
2018-10-16T16:55:11.834Z,17.72
2018-10-16T16:57:41.037Z,17.61
2018-10-16T17:00:12.486Z,17.51
2018-10-16T17:02:42.998Z,17.43
2018-10-16T17:05:12.751Z,17.37
2018-10-16T17:07:42.633Z,17.30
2018-10-16T17:10:11.953Z,17.26
2018-10-16T17:12:41.781Z,17.20
2018-10-16T17:15:14.050Z,17.16
2018-10-16T17:17:43.858Z,17.10
2018-10-16T17:20:13.340Z,17.04
2018-10-16T17:22:42.282Z,16.98
2018-10-16T17:25:13.368Z,16.92
2018-10-16T17:27:42.675Z,16.84
2018-10-16T17:30:13.633Z,16.78
2018-10-16T17:32:43.587Z,16.72
2018-10-16T17:35:13.986Z,16.67
2018-10-16T17:37:43.400Z,16.64
2018-10-16T17:40:15.254Z,16.59
2018-10-16T17:42:44.941Z,16.54
2018-10-16T17:45:15.414Z,16.46
2018-10-16T17:47:45.029Z,16.40
2018-10-16T17:50:16.216Z,16.33
2018-10-16T17:52:45.550Z,16.28
2018-10-16T17:56:17.374Z,16.22
2018-10-16T17:58:46.754Z,16.16
2018-10-16T18:01:18.485Z,16.14
2018-10-16T18:03:47.749Z,16.15
2018-10-16T18:06:16.739Z,16.25
2018-10-16T18:08:45.813Z,16.42
2018-10-16T18:11:14.809Z,16.39
2018-10-16T18:13:43.758Z,16.36
2018-10-16T18:16:12.725Z,16.31
2018-10-16T18:18:41.821Z,16.16
2018-10-16T18:21:11.012Z,16.14
2018-10-16T18:23:40.166Z,16.09
2018-10-16T18:26:09.321Z,16.06
2018-10-16T18:28:38.324Z,15.97
2018-10-16T18:31:08.067Z,15.93
2018-10-16T18:33:37.315Z,15.97
2018-10-16T18:36:06.354Z,16.00
2018-10-16T18:38:35.446Z,15.97
2018-10-16T18:41:04.781Z,15.90
2018-10-16T18:43:33.804Z,15.98
2018-10-16T18:46:02.864Z,15.99
2018-10-16T18:48:32.296Z,15.89
2018-10-16T18:51:01.547Z,15.83
2018-10-16T18:53:30.630Z,15.74
2018-10-16T18:55:59.666Z,15.71
2018-10-16T18:58:28.852Z,15.65
2018-10-16T19:00:57.885Z,15.57
2018-10-16T19:03:28.308Z,15.53
2018-10-16T19:05:57.172Z,15.57
2018-10-16T19:08:26.167Z,15.58
2018-10-16T19:10:55.415Z,15.69
2018-10-16T19:13:24.428Z,15.58
2018-10-16T19:15:53.374Z,15.52
2018-10-16T19:18:22.830Z,15.52
2018-10-16T19:20:51.851Z,15.45
2018-10-16T19:23:20.821Z,15.39
2018-10-16T19:25:50.113Z,15.27
2018-10-16T19:28:19.109Z,15.17
2018-10-16T19:30:48.089Z,15.19
2018-10-16T19:33:17.174Z,15.14
2018-10-16T19:35:46.287Z,15.02
2018-10-16T19:38:15.396Z,14.87
2018-10-16T19:40:45.692Z,14.75
2018-10-16T19:43:14.879Z,14.65
2018-10-16T19:45:44.036Z,14.58
2018-10-16T19:48:14.109Z,14.52
2018-10-16T19:50:43.091Z,14.47
2018-10-16T19:53:12.465Z,14.44
2018-10-16T19:55:41.484Z,14.43
2018-10-16T19:58:10.433Z,14.37
2018-10-16T20:00:39.773Z,14.33
2018-10-16T20:03:09.973Z,14.26
2018-10-16T20:05:39.176Z,14.24
2018-10-16T20:08:08.465Z,14.23
2018-10-16T20:10:37.448Z,14.16
2018-10-16T20:13:06.728Z,14.07
2018-10-16T20:15:35.949Z,14.03
2018-10-16T20:18:05.185Z,13.98
2018-10-16T20:20:34.281Z,13.96
2018-10-16T20:23:03.490Z,14.07
2018-10-16T20:25:32.651Z,14.13
2018-10-16T20:28:01.672Z,14.06
2018-10-16T20:30:30.841Z,13.99
2018-10-16T20:32:59.820Z,13.87
2018-10-16T20:35:28.759Z,13.79
2018-10-16T20:37:58.614Z,13.79
2018-10-16T20:40:27.580Z,13.78
2018-10-16T20:42:56.742Z,13.74
2018-10-16T20:45:25.742Z,13.68
2018-10-16T20:47:54.859Z,13.56
2018-10-16T20:50:24.017Z,13.43
2018-10-16T20:52:53.115Z,13.34
2018-10-16T20:55:22.242Z,13.25
2018-10-16T20:57:51.182Z,13.19
2018-10-16T21:00:20.134Z,13.12
2018-10-16T21:02:49.296Z,13.09
2018-10-16T21:05:18.688Z,12.98
2018-10-16T21:07:47.594Z,12.96
2018-10-16T21:10:16.633Z,12.94
2018-10-16T21:12:45.541Z,12.89
2018-10-16T21:15:14.969Z,12.88
2018-10-16T21:17:44.021Z,12.90
2018-10-16T21:20:13.142Z,12.92
2018-10-16T21:22:42.263Z,12.87
2018-10-16T21:25:11.453Z,12.81
2018-10-16T21:27:40.378Z,12.71
2018-10-16T21:30:10.393Z,12.71
2018-10-16T21:32:40.336Z,12.81
2018-10-16T21:35:09.559Z,12.68
2018-10-16T21:37:38.699Z,12.59
2018-10-16T21:40:08.425Z,12.54
2018-10-16T21:42:37.551Z,12.53
2018-10-16T21:45:07.369Z,12.50
2018-10-16T21:47:36.340Z,12.41
2018-10-16T21:50:05.535Z,12.35
2018-10-16T21:52:34.846Z,12.31
2018-10-16T21:55:03.960Z,12.27
2018-10-16T21:57:32.833Z,12.26
2018-10-16T22:00:01.866Z,12.26
2018-10-16T22:02:36.009Z,12.25
2018-10-16T22:05:05.683Z,12.18
2018-10-16T22:07:34.707Z,12.12
2018-10-16T22:10:03.759Z,12.12
2018-10-16T22:12:32.808Z,12.07
2018-10-16T22:15:02.147Z,12.07
2018-10-16T22:17:31.192Z,12.06
2018-10-16T22:20:00.460Z,12.04
2018-10-16T22:22:29.544Z,12.05
2018-10-16T22:24:58.544Z,12.02
2018-10-16T22:27:28.068Z,12.04
2018-10-16T22:29:57.013Z,11.99
2018-10-16T22:32:25.933Z,11.93
2018-10-16T22:34:55.357Z,11.90
2018-10-16T22:37:24.424Z,11.85
2018-10-16T22:39:53.403Z,11.95
2018-10-16T22:42:22.831Z,12.04
2018-10-16T22:44:51.855Z,12.15
2018-10-16T22:47:20.908Z,12.25
2018-10-16T22:49:50.325Z,12.31
2018-10-16T22:52:19.279Z,12.33
2018-10-16T22:54:48.340Z,12.30
2018-10-16T22:57:17.337Z,12.32
2018-10-16T22:59:46.419Z,12.30
2018-10-16T23:02:15.431Z,12.27
2018-10-16T23:04:44.938Z,12.22
2018-10-16T23:07:14.032Z,12.16
2018-10-16T23:09:42.931Z,12.13
2018-10-16T23:12:12.200Z,12.14
2018-10-16T23:14:41.152Z,12.14
2018-10-16T23:17:10.646Z,12.12
2018-10-16T23:19:40.043Z,12.15
2018-10-16T23:22:08.996Z,12.11
2018-10-16T23:24:38.039Z,12.13
2018-10-16T23:27:07.028Z,11.99
2018-10-16T23:29:36.092Z,11.92
